Time;durP1;ratioP1;P1;durP2;ratioP2;P2;SDS_P1;SDS_P2;PMS_P1;PMS_P2;Temp;Humidity;BMP_temperature;BMP_pressure;BME280_temperature;BME280_humidity;BME280_pressure;Samples;Min_cycle;Max_cycle;Signal;HPM_P1;HPM_P2
2022/12/31 00:00:13;;;;;;;;;;;;;;;;;;6273386;22;20348;-92
2022/12/31 00:02:39;;;;;;;;;;;;;;;;;;6266224;22;20291;-92
2022/12/31 00:05:06;;;;;;;;;;;;;;;;;;6302681;22;19915;-94
2022/12/31 00:07:32;;;;;;;;;;;;;;;;;;6275626;22;19915;-95
2022/12/31 00:09:58;;;;;;;;;;;;;;;;;;6288104;22;19926;-95
2022/12/31 00:12:24;;;;;;;;;;;;;;;;;;6260514;22;19993;-95
2022/12/31 00:14:50;;;;;;;;;;;;;;;;;;6261802;22;20048;-96
2022/12/31 00:17:16;;;;;;;;;;;;;;;;;;6265280;22;19919;-96
2022/12/31 00:19:42;;;;;;;;;;;;;;;;;;6267097;22;19915;-94
2022/12/31 00:22:08;;;;;;;;;;;;;;;;;;6268155;22;19937;-95
2022/12/31 00:24:34;;;;;;;;;;;;;;;;;;6265143;22;19915;-93
2022/12/31 00:27:00;;;;;;;;;;;;;;;;;;6264144;22;19922;-96
2022/12/31 00:29:26;;;;;;;;;;;;;;;;;;6269680;22;19954;-93
2022/12/31 00:31:52;;;;;;;;;;;;;;;;;;6269583;22;19907;-95
2022/12/31 00:34:18;;;;;;;;;;;;;;;;;;6268422;22;19918;-96
2022/12/31 00:36:44;;;;;;;;;;;;;;;;;;6275044;22;19914;-94
2022/12/31 00:39:10;;;;;;;;;;;;;;;;;;6274788;22;19922;-95
2022/12/31 00:41:36;;;;;;;;;;;;;;;;;;6270010;22;19915;-95
2022/12/31 00:44:03;;;;;;;;;;;;;;;;;;6274604;22;19915;-92
2022/12/31 00:46:30;;;;;;;;;;;;;;;;;;6273962;22;19922;-95
2022/12/31 00:48:56;;;;;;;;;;;;;;;;;;6274807;22;19957;-94
2022/12/31 00:51:22;;;;;;;;;;;;;;;;;;6278070;22;19942;-92
2022/12/31 00:53:48;;;;;;;;;;;;;;;;;;6277098;22;19915;-95
2022/12/31 00:56:14;;;;;;;;;;;;;;;;;;6270073;22;19922;-96
2022/12/31 00:58:40;;;;;;;;;;;;;;;;;;6271468;22;19915;-95
2022/12/31 01:01:06;;;;;;;;;;;;;;;;;;6298773;22;19954;-95
2022/12/31 01:03:32;;;;;;;;;;;;;;;;;;6270437;22;19919;-96
2022/12/31 01:05:58;;;;;;;;;;;;;;;;;;6274735;22;19922;-95
2022/12/31 01:08:24;;;;;;;;;;;;;;;;;;6275436;22;19915;-96
2022/12/31 01:13:35;;;;;;;;;;;;;;;;;;6285782;22;19915;-93
2022/12/31 01:16:01;;;;;;;;;;;;;;;;;;6255220;22;20461;-94
2022/12/31 01:18:27;;;;;;;;;;;;;;;;;;6256517;22;19929;-92
2022/12/31 01:20:53;;;;;;;;;;;;;;;;;;6280746;22;19969;-96
2022/12/31 01:23:19;;;;;;;;;;;;;;;;;;6255255;22;20341;-96
2022/12/31 01:25:44;;;;;;;;;;;;;;;;;;6283605;22;19915;-96
2022/12/31 01:28:10;;;;;;;;;;;;;;;;;;6284582;22;19922;-96
2022/12/31 01:30:36;;;;;;;;;;;;;;;;;;6257976;22;19930;-96
2022/12/31 01:33:02;;;;;;;;;;;;;;;;;;6257845;22;19915;-96
2022/12/31 01:35:28;;;;;;;;;;;;;;;;;;6257698;22;19915;-95
2022/12/31 01:37:54;;;;;;;;;;;;;;;;;;6256946;22;19915;-92
2022/12/31 01:40:20;;;;;;;;;;;;;;;;;;6256806;22;19915;-93
2022/12/31 01:42:46;;;;;;;;;;;;;;;;;;6282788;22;20295;-94
2022/12/31 01:45:12;;;;;;;;;;;;;;;;;;6282369;22;19958;-93
2022/12/31 01:47:38;;;;;;;;;;;;;;;;;;6256785;22;19985;-93
2022/12/31 01:50:03;;;;;;;;;;;;;;;;;;6281946;22;19965;-93
2022/12/31 01:52:30;;;;;;;;;;;;;;;;;;6283293;22;20201;-94
2022/12/31 01:54:56;;;;;;;;;;;;;;;;;;6282458;22;19921;-93
2022/12/31 01:57:22;;;;;;;;;;;;;;;;;;6257024;22;19951;-94
2022/12/31 01:59:47;;;;;;;;;;;;;;;;;;6256539;22;19989;-95
2022/12/31 02:02:13;;;;;;;;;;;;;;;;;;6256930;22;19921;-96
2022/12/31 02:04:39;;;;;;;;;;;;;;;;;;6256689;22;19945;-93
2022/12/31 02:07:05;;;;;;;;;;;;;;;;;;6256648;22;19937;-95
2022/12/31 02:09:31;;;;;;;;;;;;;;;;;;6282215;22;19919;-95
2022/12/31 02:11:57;;;;;;;;;;;;;;;;;;6282332;22;19919;-94
2022/12/31 02:14:23;;;;;;;;;;;;;;;;;;6256762;22;20348;-94
2022/12/31 02:16:49;;;;;;;;;;;;;;;;;;6256748;22;19926;-93
2022/12/31 02:19:15;;;;;;;;;;;;;;;;;;6256627;22;19980;-94
2022/12/31 02:21:41;;;;;;;;;;;;;;;;;;6282322;22;19923;-92
2022/12/31 02:24:07;;;;;;;;;;;;;;;;;;6256400;22;19919;-92
2022/12/31 02:26:33;;;;;;;;;;;;;;;;;;6256537;22;20260;-91
2022/12/31 02:28:58;;;;;;;;;;;;;;;;;;6256388;22;19922;-93
2022/12/31 02:31:24;;;;;;;;;;;;;;;;;;6282273;22;20391;-93
2022/12/31 02:33:50;;;;;;;;;;;;;;;;;;6256514;22;19946;-95
2022/12/31 02:36:16;;;;;;;;;;;;;;;;;;6256170;22;19954;-94
2022/12/31 02:38:42;;;;;;;;;;;;;;;;;;6282127;22;19921;-96
2022/12/31 02:41:08;;;;;;;;;;;;;;;;;;6256364;22;19915;-95
2022/12/31 02:43:34;;;;;;;;;;;;;;;;;;6256633;22;19915;-94
2022/12/31 02:46:00;;;;;;;;;;;;;;;;;;6256269;22;19968;-94
2022/12/31 02:48:26;;;;;;;;;;;;;;;;;;6256229;22;19915;-91
2022/12/31 02:50:55;;;;;;;;;;;;;;;;;;6256239;22;19968;-93
2022/12/31 02:53:21;;;;;;;;;;;;;;;;;;6282170;22;20118;-94
2022/12/31 02:55:47;;;;;;;;;;;;;;;;;;6256029;22;19958;-94
2022/12/31 02:58:13;;;;;;;;;;;;;;;;;;6256446;22;20333;-94
2022/12/31 03:03:23;;;;;;;;;;;;;;;;;;6281557;22;19938;-93
2022/12/31 03:05:49;;;;;;;;;;;;;;;;;;6256038;22;19915;-94
2022/12/31 03:08:15;;;;;;;;;;;;;;;;;;6256056;22;19914;-94
2022/12/31 03:10:41;;;;;;;;;;;;;;;;;;6256021;22;20234;-94
2022/12/31 03:13:07;;;;;;;;;;;;;;;;;;6256413;22;20006;-94
2022/12/31 03:15:33;;;;;;;;;;;;;;;;;;6255985;22;20352;-95
2022/12/31 03:17:59;;;;;;;;;;;;;;;;;;6256527;22;19986;-93
2022/12/31 03:23:09;;;;;;;;;;;;;;;;;;6281643;22;19921;-94
2022/12/31 03:25:37;;;;;;;;;;;;;;;;;;6256082;22;19989;-93
2022/12/31 03:28:03;;;;;;;;;;;;;;;;;;6256201;22;19925;-96
2022/12/31 03:30:29;;;;;;;;;;;;;;;;;;6255696;22;19919;-95
2022/12/31 03:32:55;;;;;;;;;;;;;;;;;;6256088;22;19915;-94
2022/12/31 03:35:21;;;;;;;;;;;;;;;;;;6255992;22;20348;-93
2022/12/31 03:37:47;;;;;;;;;;;;;;;;;;6281472;22;19915;-93
2022/12/31 03:40:13;;;;;;;;;;;;;;;;;;6281235;22;19965;-93
2022/12/31 03:42:39;;;;;;;;;;;;;;;;;;6255961;22;19915;-93
2022/12/31 03:45:05;;;;;;;;;;;;;;;;;;6281414;22;19915;-95
2022/12/31 03:47:30;;;;;;;;;;;;;;;;;;6281385;22;19918;-95
2022/12/31 03:49:56;;;;;;;;;;;;;;;;;;6280607;22;19985;-93
2022/12/31 03:52:22;;;;;;;;;;;;;;;;;;6255858;22;19925;-93
2022/12/31 03:54:48;;;;;;;;;;;;;;;;;;6255830;22;19914;-94
2022/12/31 03:57:14;;;;;;;;;;;;;;;;;;6255809;22;20333;-95
2022/12/31 03:59:40;;;;;;;;;;;;;;;;;;6256382;22;19915;-96
2022/12/31 04:02:06;;;;;;;;;;;;;;;;;;6255896;22;19915;-95
2022/12/31 04:04:32;;;;;;;;;;;;;;;;;;6255566;22;19926;-95
2022/12/31 04:06:58;;;;;;;;;;;;;;;;;;6255526;22;19919;-94
2022/12/31 04:09:24;;;;;;;;;;;;;;;;;;6255597;22;19921;-93
2022/12/31 04:11:49;;;;;;;;;;;;;;;;;;6255338;22;19950;-92
2022/12/31 04:14:16;;;;;;;;;;;;;;;;;;6281293;22;19990;-92
2022/12/31 04:16:42;;;;;;;;;;;;;;;;;;6281535;22;20352;-93
2022/12/31 04:19:07;;;;;;;;;;;;;;;;;;6281024;22;19967;-95
2022/12/31 04:21:33;;;;;;;;;;;;;;;;;;6255724;22;19915;-95
2022/12/31 04:24:00;;;;;;;;;;;;;;;;;;6280828;22;19915;-94
2022/12/31 04:26:26;;;;;;;;;;;;;;;;;;6280984;22;19922;-93
2022/12/31 04:28:52;;;;;;;;;;;;;;;;;;6280774;22;20333;-93
2022/12/31 04:31:18;;;;;;;;;;;;;;;;;;6255205;22;19938;-92
2022/12/31 04:33:44;;;;;;;;;;;;;;;;;;6255093;22;19926;-94
2022/12/31 04:36:10;;;;;;;;;;;;;;;;;;6255237;22;19915;-95
2022/12/31 04:38:35;;;;;;;;;;;;;;;;;;6255251;22;19915;-94
2022/12/31 04:41:17;;;;;;;;;;;;;;;;;;6255198;22;19934;-95
2022/12/31 04:43:43;;;;;;;;;;;;;;;;;;6255259;22;19942;-93
2022/12/31 04:46:09;;;;;;;;;;;;;;;;;;6255463;22;19915;-94
2022/12/31 04:48:34;;;;;;;;;;;;;;;;;;6281180;22;20329;-93
2022/12/31 04:51:00;;;;;;;;;;;;;;;;;;6280870;22;19919;-91
2022/12/31 04:53:26;;;;;;;;;;;;;;;;;;6255362;22;19914;-95
2022/12/31 04:55:52;;;;;;;;;;;;;;;;;;6281005;22;19930;-95
2022/12/31 04:58:18;;;;;;;;;;;;;;;;;;6255285;22;19919;-96
2022/12/31 05:00:44;;;;;;;;;;;;;;;;;;6254993;22;20336;-93
2022/12/31 05:03:10;;;;;;;;;;;;;;;;;;6255821;22;19969;-96
2022/12/31 05:05:36;;;;;;;;;;;;;;;;;;6256411;22;19915;-96
2022/12/31 05:08:02;;;;;;;;;;;;;;;;;;6255468;22;19915;-96
2022/12/31 05:10:28;;;;;;;;;;;;;;;;;;6255009;22;19942;-95
2022/12/31 05:12:54;;;;;;;;;;;;;;;;;;6255215;22;19915;-96
2022/12/31 05:15:20;;;;;;;;;;;;;;;;;;6255409;22;19922;-96
2022/12/31 05:17:46;;;;;;;;;;;;;;;;;;6257338;22;19918;-95
2022/12/31 05:20:12;;;;;;;;;;;;;;;;;;6260268;22;19919;-93
2022/12/31 05:22:37;;;;;;;;;;;;;;;;;;6262515;22;19937;-93
2022/12/31 05:25:03;;;;;;;;;;;;;;;;;;6266505;22;19915;-95
2022/12/31 05:27:32;;;;;;;;;;;;;;;;;;6261874;22;19919;-96
2022/12/31 05:29:58;;;;;;;;;;;;;;;;;;6256121;22;19985;-95
2022/12/31 05:32:24;;;;;;;;;;;;;;;;;;6254966;22;19958;-93
2022/12/31 05:34:50;;;;;;;;;;;;;;;;;;6255233;22;19989;-93
2022/12/31 05:37:16;;;;;;;;;;;;;;;;;;6256717;22;20295;-95
2022/12/31 05:39:42;;;;;;;;;;;;;;;;;;6256097;22;19914;-93
2022/12/31 05:42:08;;;;;;;;;;;;;;;;;;6257222;22;19922;-94
2022/12/31 05:44:34;;;;;;;;;;;;;;;;;;6255555;22;19915;-95
2022/12/31 05:47:00;;;;;;;;;;;;;;;;;;6255459;22;19921;-94
2022/12/31 05:49:26;;;;;;;;;;;;;;;;;;6255151;22;19915;-95
2022/12/31 05:51:52;;;;;;;;;;;;;;;;;;6255751;22;19926;-95
2022/12/31 05:54:17;;;;;;;;;;;;;;;;;;6256856;22;19985;-96
2022/12/31 05:56:43;;;;;;;;;;;;;;;;;;6255839;22;20372;-95
2022/12/31 05:59:09;;;;;;;;;;;;;;;;;;6256236;22;20000;-95
2022/12/31 06:01:35;;;;;;;;;;;;;;;;;;6256000;22;19915;-94
2022/12/31 06:04:01;;;;;;;;;;;;;;;;;;6254591;22;19919;-94
2022/12/31 06:06:27;;;;;;;;;;;;;;;;;;6254718;22;19922;-94
2022/12/31 06:08:53;;;;;;;;;;;;;;;;;;6255138;22;19922;-94
2022/12/31 06:11:19;;;;;;;;;;;;;;;;;;6280790;22;19923;-92
2022/12/31 06:13:45;;;;;;;;;;;;;;;;;;6256747;22;19963;-94
2022/12/31 06:16:10;;;;;;;;;;;;;;;;;;6282368;22;19919;-94
2022/12/31 06:18:36;;;;;;;;;;;;;;;;;;6256638;22;19937;-94
2022/12/31 06:21:02;;;;;;;;;;;;;;;;;;6256317;22;19915;-93
2022/12/31 06:23:28;;;;;;;;;;;;;;;;;;6281998;22;19935;-93
2022/12/31 06:25:54;;;;;;;;;;;;;;;;;;6256429;22;19922;-94
2022/12/31 06:28:20;;;;;;;;;;;;;;;;;;6256864;22;19915;-95
2022/12/31 06:30:46;;;;;;;;;;;;;;;;;;6281734;22;19922;-94
2022/12/31 06:33:12;;;;;;;;;;;;;;;;;;6256255;22;19919;-95
2022/12/31 06:35:38;;;;;;;;;;;;;;;;;;6256452;22;19914;-93
2022/12/31 06:38:04;;;;;;;;;;;;;;;;;;6256429;22;20297;-96
2022/12/31 06:40:30;;;;;;;;;;;;;;;;;;6256188;22;19990;-94
2022/12/31 06:42:56;;;;;;;;;;;;;;;;;;6256294;22;19984;-93
2022/12/31 06:45:21;;;;;;;;;;;;;;;;;;6256250;22;19922;-92
2022/12/31 06:47:47;;;;;;;;;;;;;;;;;;6256309;22;19914;-93
2022/12/31 06:50:13;;;;;;;;;;;;;;;;;;6255970;22;19919;-94
2022/12/31 06:52:39;;;;;;;;;;;;;;;;;;6281871;22;19953;-94
2022/12/31 06:55:05;;;;;;;;;;;;;;;;;;6281529;22;19994;-93
2022/12/31 06:57:31;;;;;;;;;;;;;;;;;;6256131;22;19923;-94
2022/12/31 06:59:57;;;;;;;;;;;;;;;;;;6255895;22;19915;-94
2022/12/31 07:02:23;;;;;;;;;;;;;;;;;;6255409;22;19915;-94
2022/12/31 07:04:49;;;;;;;;;;;;;;;;;;6281569;22;19915;-94
2022/12/31 07:07:14;;;;;;;;;;;;;;;;;;6281499;22;19937;-93
2022/12/31 07:09:40;;;;;;;;;;;;;;;;;;6281231;22;19915;-93
2022/12/31 07:12:06;;;;;;;;;;;;;;;;;;6281318;22;19919;-92
2022/12/31 07:14:32;;;;;;;;;;;;;;;;;;6281571;22;20341;-94
2022/12/31 07:16:58;;;;;;;;;;;;;;;;;;6255936;22;19945;-95
2022/12/31 07:19:24;;;;;;;;;;;;;;;;;;6255375;22;19919;-94
2022/12/31 07:21:50;;;;;;;;;;;;;;;;;;6255873;22;19915;-94
2022/12/31 07:24:16;;;;;;;;;;;;;;;;;;6255724;22;19915;-93
2022/12/31 07:26:42;;;;;;;;;;;;;;;;;;6281201;22;19918;-94
2022/12/31 07:29:08;;;;;;;;;;;;;;;;;;6255590;22;19922;-94
2022/12/31 07:31:34;;;;;;;;;;;;;;;;;;6281096;22;19973;-94
2022/12/31 07:34:00;;;;;;;;;;;;;;;;;;6255736;22;19922;-94
2022/12/31 07:36:25;;;;;;;;;;;;;;;;;;6281414;22;19922;-95
2022/12/31 07:38:51;;;;;;;;;;;;;;;;;;6255154;22;20344;-94
2022/12/31 07:41:17;;;;;;;;;;;;;;;;;;6255543;22;19921;-93
2022/12/31 07:43:43;;;;;;;;;;;;;;;;;;6255718;22;19915;-94
2022/12/31 07:46:09;;;;;;;;;;;;;;;;;;6281302;22;19915;-94
2022/12/31 07:48:35;;;;;;;;;;;;;;;;;;6280909;22;20339;-93
2022/12/31 07:51:01;;;;;;;;;;;;;;;;;;6255095;22;19926;-95
2022/12/31 07:53:27;;;;;;;;;;;;;;;;;;6255514;22;19915;-95
2022/12/31 07:55:53;;;;;;;;;;;;;;;;;;6255391;22;19922;-96
2022/12/31 07:58:19;;;;;;;;;;;;;;;;;;6255611;22;19923;-94
2022/12/31 08:00:45;;;;;;;;;;;;;;;;;;6281129;22;19921;-94
2022/12/31 08:03:11;;;;;;;;;;;;;;;;;;6255815;22;19965;-94
2022/12/31 08:05:36;;;;;;;;;;;;;;;;;;6281544;22;19947;-94
2022/12/31 08:08:02;;;;;;;;;;;;;;;;;;6281348;22;20252;-93
2022/12/31 08:10:28;;;;;;;;;;;;;;;;;;6280444;22;19926;-93
2022/12/31 08:12:54;;;;;;;;;;;;;;;;;;6255533;22;19922;-90
2022/12/31 08:15:20;;;;;;;;;;;;;;;;;;6280836;22;19914;-93
2022/12/31 08:17:46;;;;;;;;;;;;;;;;;;6280747;22;19915;-92
2022/12/31 08:20:12;;;;;;;;;;;;;;;;;;6254749;22;20402;-92
2022/12/31 08:22:38;;;;;;;;;;;;;;;;;;6255277;22;20194;-92
2022/12/31 08:25:04;;;;;;;;;;;;;;;;;;6280598;22;20352;-94
2022/12/31 08:27:30;;;;;;;;;;;;;;;;;;6280851;22;19914;-92
2022/12/31 08:29:56;;;;;;;;;;;;;;;;;;6254229;22;19915;-93
2022/12/31 08:32:21;;;;;;;;;;;;;;;;;;6255099;22;19926;-92
2022/12/31 08:34:47;;;;;;;;;;;;;;;;;;6254716;22;19915;-91
2022/12/31 08:37:13;;;;;;;;;;;;;;;;;;6255296;22;19966;-93
2022/12/31 08:39:39;;;;;;;;;;;;;;;;;;6280225;22;19915;-95
2022/12/31 08:42:05;;;;;;;;;;;;;;;;;;6255193;22;19915;-94
2022/12/31 08:44:31;;;;;;;;;;;;;;;;;;6255459;22;19915;-94
2022/12/31 08:46:57;;;;;;;;;;;;;;;;;;6281036;22;19915;-94
2022/12/31 08:49:23;;;;;;;;;;;;;;;;;;6255084;22;19937;-93
2022/12/31 08:51:49;;;;;;;;;;;;;;;;;;6256143;22;19941;-96
2022/12/31 08:54:15;;;;;;;;;;;;;;;;;;6255720;22;19915;-96
2022/12/31 08:56:41;;;;;;;;;;;;;;;;;;6255139;22;19980;-95
2022/12/31 08:59:06;;;;;;;;;;;;;;;;;;6254547;22;19937;-94
2022/12/31 09:01:32;;;;;;;;;;;;;;;;;;6255224;22;19914;-95
2022/12/31 09:03:58;;;;;;;;;;;;;;;;;;6254851;22;19964;-94
2022/12/31 09:06:24;;;;;;;;;;;;;;;;;;6254612;22;20348;-94
2022/12/31 09:08:50;;;;;;;;;;;;;;;;;;6254515;22;19916;-92
2022/12/31 09:11:16;;;;;;;;;;;;;;;;;;6254713;22;19926;-94
2022/12/31 09:13:42;;;;;;;;;;;;;;;;;;6254794;22;19919;-94
2022/12/31 09:16:08;;;;;;;;;;;;;;;;;;6255203;22;19915;-94
2022/12/31 09:18:34;;;;;;;;;;;;;;;;;;6256015;22;19914;-95
2022/12/31 09:21:00;;;;;;;;;;;;;;;;;;6281138;22;19922;-92
2022/12/31 09:23:26;;;;;;;;;;;;;;;;;;6255383;22;19915;-95
2022/12/31 09:25:51;;;;;;;;;;;;;;;;;;6281330;22;20230;-95
2022/12/31 09:28:18;;;;;;;;;;;;;;;;;;6255566;22;19964;-96
2022/12/31 09:30:44;;;;;;;;;;;;;;;;;;6280587;22;19986;-94
2022/12/31 09:33:10;;;;;;;;;;;;;;;;;;6255624;22;19942;-93
2022/12/31 09:35:36;;;;;;;;;;;;;;;;;;6281728;22;19942;-96
2022/12/31 09:38:02;;;;;;;;;;;;;;;;;;6256175;22;19918;-95
2022/12/31 09:40:28;;;;;;;;;;;;;;;;;;6255569;22;19926;-95
2022/12/31 09:42:53;;;;;;;;;;;;;;;;;;6283253;22;20355;-95
2022/12/31 09:45:19;;;;;;;;;;;;;;;;;;6256469;22;19922;-95
2022/12/31 09:47:45;;;;;;;;;;;;;;;;;;6283840;22;19974;-96
2022/12/31 09:50:12;;;;;;;;;;;;;;;;;;6259747;22;20033;-94
2022/12/31 09:52:38;;;;;;;;;;;;;;;;;;6284158;22;19914;-95
2022/12/31 09:55:04;;;;;;;;;;;;;;;;;;6283161;22;19987;-96
2022/12/31 09:57:30;;;;;;;;;;;;;;;;;;6258293;22;19915;-95
2022/12/31 09:59:56;;;;;;;;;;;;;;;;;;6257342;22;19915;-93
2022/12/31 10:02:22;;;;;;;;;;;;;;;;;;6258364;22;19930;-93
2022/12/31 10:04:48;;;;;;;;;;;;;;;;;;6257782;22;19915;-95
2022/12/31 10:07:13;;;;;;;;;;;;;;;;;;6257341;22;19922;-92
2022/12/31 10:09:39;;;;;;;;;;;;;;;;;;6258203;22;19922;-94
2022/12/31 10:12:05;;;;;;;;;;;;;;;;;;6258155;22;19918;-91
2022/12/31 10:14:31;;;;;;;;;;;;;;;;;;6257369;22;19915;-92
2022/12/31 10:16:57;;;;;;;;;;;;;;;;;;6283088;22;19950;-94
2022/12/31 10:19:23;;;;;;;;;;;;;;;;;;6257335;22;19946;-95
2022/12/31 10:21:49;;;;;;;;;;;;;;;;;;6257305;22;19915;-95
2022/12/31 10:24:15;;;;;;;;;;;;;;;;;;6257763;22;19921;-93
2022/12/31 10:26:41;;;;;;;;;;;;;;;;;;6257135;22;19930;-92
2022/12/31 10:29:07;;;;;;;;;;;;;;;;;;6256329;22;19915;-94
2022/12/31 10:31:33;;;;;;;;;;;;;;;;;;6257654;22;19918;-94
2022/12/31 10:33:59;;;;;;;;;;;;;;;;;;6257603;22;19921;-94
2022/12/31 10:36:24;;;;;;;;;;;;;;;;;;6256573;22;19915;-93
2022/12/31 10:38:51;;;;;;;;;;;;;;;;;;6257938;22;19922;-93
2022/12/31 10:41:17;;;;;;;;;;;;;;;;;;6282612;22;19964;-94
2022/12/31 10:43:42;;;;;;;;;;;;;;;;;;6257008;22;19919;-96
2022/12/31 10:46:08;;;;;;;;;;;;;;;;;;6256135;22;19964;-93
2022/12/31 10:48:34;;;;;;;;;;;;;;;;;;6281722;22;20402;-91
2022/12/31 10:51:00;;;;;;;;;;;;;;;;;;6255638;22;19919;-92
2022/12/31 10:53:26;;;;;;;;;;;;;;;;;;6256040;22;19915;-93
2022/12/31 10:55:53;;;;;;;;;;;;;;;;;;6255370;22;19925;-92
2022/12/31 10:58:18;;;;;;;;;;;;;;;;;;6254784;22;19929;-90
2022/12/31 11:00:44;;;;;;;;;;;;;;;;;;6254641;22;19985;-88
2022/12/31 11:03:10;;;;;;;;;;;;;;;;;;6255136;22;19942;-88
2022/12/31 11:05:36;;;;;;;;;;;;;;;;;;6254738;22;19987;-90
2022/12/31 11:08:02;;;;;;;;;;;;;;;;;;6254862;22;20255;-91
2022/12/31 11:10:28;;;;;;;;;;;;;;;;;;6254789;22;19923;-92
2022/12/31 11:12:54;;;;;;;;;;;;;;;;;;6255268;22;19926;-92
2022/12/31 11:15:20;;;;;;;;;;;;;;;;;;6280597;22;19926;-92
2022/12/31 11:17:46;;;;;;;;;;;;;;;;;;6255636;22;20272;-91
2022/12/31 11:20:12;;;;;;;;;;;;;;;;;;6280287;22;19968;-91
2022/12/31 11:22:37;;;;;;;;;;;;;;;;;;6254881;22;19965;-92
2022/12/31 11:25:03;;;;;;;;;;;;;;;;;;6255158;22;19914;-91
2022/12/31 11:27:29;;;;;;;;;;;;;;;;;;6255290;22;19914;-92
2022/12/31 11:29:55;;;;;;;;;;;;;;;;;;6255073;22;19915;-90
2022/12/31 11:32:21;;;;;;;;;;;;;;;;;;6280973;22;20325;-93
2022/12/31 11:34:47;;;;;;;;;;;;;;;;;;6281206;22;19915;-93
2022/12/31 11:37:13;;;;;;;;;;;;;;;;;;6255442;22;19915;-93
2022/12/31 11:39:39;;;;;;;;;;;;;;;;;;6253856;22;19915;-92
2022/12/31 11:42:05;;;;;;;;;;;;;;;;;;6253915;22;19915;-93
2022/12/31 11:44:30;;;;;;;;;;;;;;;;;;6279628;22;19980;-91
2022/12/31 11:46:56;;;;;;;;;;;;;;;;;;6279404;22;19915;-91
2022/12/31 11:49:22;;;;;;;;;;;;;;;;;;6253326;22;19919;-90
2022/12/31 11:51:48;;;;;;;;;;;;;;;;;;6279196;22;19925;-91
2022/12/31 11:54:14;;;;;;;;;;;;;;;;;;6254307;22;19990;-92
2022/12/31 11:56:40;;;;;;;;;;;;;;;;;;6253948;22;19937;-91
2022/12/31 11:59:06;;;;;;;;;;;;;;;;;;6279141;22;19922;-92
2022/12/31 12:01:32;;;;;;;;;;;;;;;;;;6279265;22;19919;-91
2022/12/31 12:03:58;;;;;;;;;;;;;;;;;;6279511;22;19922;-92
2022/12/31 12:06:24;;;;;;;;;;;;;;;;;;6279484;22;19915;-91
2022/12/31 12:08:49;;;;;;;;;;;;;;;;;;6278413;22;20328;-90
2022/12/31 12:11:17;;;;;;;;;;;;;;;;;;6253754;22;19926;-91
2022/12/31 12:13:43;;;;;;;;;;;;;;;;;;6254348;22;19915;-93
2022/12/31 12:16:09;;;;;;;;;;;;;;;;;;6253830;22;19914;-92
2022/12/31 12:18:35;;;;;;;;;;;;;;;;;;6253621;22;19983;-94
2022/12/31 12:21:01;;;;;;;;;;;;;;;;;;6254173;22;19915;-93
2022/12/31 12:23:27;;;;;;;;;;;;;;;;;;6278984;22;19922;-92
2022/12/31 12:25:53;;;;;;;;;;;;;;;;;;6253586;22;19922;-93
2022/12/31 12:28:19;;;;;;;;;;;;;;;;;;6253268;22;19925;-93
2022/12/31 12:30:45;;;;;;;;;;;;;;;;;;6253414;22;19994;-92
2022/12/31 12:33:11;;;;;;;;;;;;;;;;;;6253822;22;19915;-91
2022/12/31 12:35:38;;;;;;;;;;;;;;;;;;6279787;22;19915;-92
2022/12/31 12:38:04;;;;;;;;;;;;;;;;;;6202708;22;1764373;-95
2022/12/31 12:40:30;;;;;;;;;;;;;;;;;;6255129;22;19961;-92
2022/12/31 12:42:56;;;;;;;;;;;;;;;;;;6255317;22;19968;-93
2022/12/31 12:45:22;;;;;;;;;;;;;;;;;;6255036;22;19914;-93
2022/12/31 12:47:47;;;;;;;;;;;;;;;;;;6254798;22;19919;-92
2022/12/31 12:50:13;;;;;;;;;;;;;;;;;;6254422;22;19954;-91
2022/12/31 12:52:39;;;;;;;;;;;;;;;;;;6255284;22;19957;-93
2022/12/31 12:55:05;;;;;;;;;;;;;;;;;;6280555;22;20507;-92
2022/12/31 12:57:31;;;;;;;;;;;;;;;;;;6254631;22;19915;-91
2022/12/31 12:59:57;;;;;;;;;;;;;;;;;;6254346;22;20256;-93
2022/12/31 13:02:23;;;;;;;;;;;;;;;;;;6254548;22;19915;-91
2022/12/31 13:04:49;;;;;;;;;;;;;;;;;;6254651;22;19914;-91
2022/12/31 13:07:15;;;;;;;;;;;;;;;;;;6254663;22;19963;-90
2022/12/31 13:09:40;;;;;;;;;;;;;;;;;;6254130;22;19919;-90
2022/12/31 13:12:06;;;;;;;;;;;;;;;;;;6254211;22;20246;-90
2022/12/31 13:14:32;;;;;;;;;;;;;;;;;;6279643;22;19919;-90
2022/12/31 13:16:58;;;;;;;;;;;;;;;;;;6253703;22;19941;-90
2022/12/31 13:19:24;;;;;;;;;;;;;;;;;;6279122;22;20268;-89
2022/12/31 13:21:50;;;;;;;;;;;;;;;;;;6253654;22;19950;-90
2022/12/31 13:24:16;;;;;;;;;;;;;;;;;;6254080;22;19914;-91
2022/12/31 13:26:42;;;;;;;;;;;;;;;;;;6253847;22;19962;-90
2022/12/31 13:29:08;;;;;;;;;;;;;;;;;;6279256;22;19993;-91
2022/12/31 13:31:34;;;;;;;;;;;;;;;;;;6254132;22;19941;-91
2022/12/31 13:33:59;;;;;;;;;;;;;;;;;;6253387;22;19994;-92
2022/12/31 13:36:25;;;;;;;;;;;;;;;;;;6254407;22;19922;-91
2022/12/31 13:38:51;;;;;;;;;;;;;;;;;;6253247;22;19915;-90
2022/12/31 13:41:17;;;;;;;;;;;;;;;;;;6253659;22;19961;-91
2022/12/31 13:43:43;;;;;;;;;;;;;;;;;;6253852;22;20340;-90
2022/12/31 13:46:09;;;;;;;;;;;;;;;;;;6253799;22;19964;-89
2022/12/31 13:48:35;;;;;;;;;;;;;;;;;;6253528;22;19937;-89
2022/12/31 13:51:01;;;;;;;;;;;;;;;;;;6253484;22;19919;-90
2022/12/31 13:53:27;;;;;;;;;;;;;;;;;;6254297;22;20402;-93
2022/12/31 13:55:56;;;;;;;;;;;;;;;;;;6254351;22;19937;-92
2022/12/31 13:58:22;;;;;;;;;;;;;;;;;;6279390;22;19918;-91
2022/12/31 14:00:48;;;;;;;;;;;;;;;;;;6254234;22;19967;-93
2022/12/31 14:03:14;;;;;;;;;;;;;;;;;;6254219;22;19922;-93
2022/12/31 14:05:40;;;;;;;;;;;;;;;;;;6254067;22;19915;-92
2022/12/31 14:08:06;;;;;;;;;;;;;;;;;;6254389;22;19915;-92
2022/12/31 14:10:32;;;;;;;;;;;;;;;;;;6254316;22;19925;-92
2022/12/31 14:12:58;;;;;;;;;;;;;;;;;;6279937;22;19946;-92
2022/12/31 14:15:23;;;;;;;;;;;;;;;;;;6254365;22;19994;-92
2022/12/31 14:17:49;;;;;;;;;;;;;;;;;;6254255;22;19914;-92
2022/12/31 14:20:15;;;;;;;;;;;;;;;;;;6279773;22;19985;-91
2022/12/31 14:22:41;;;;;;;;;;;;;;;;;;6253989;22;19957;-92
2022/12/31 14:25:07;;;;;;;;;;;;;;;;;;6254197;22;19989;-93
2022/12/31 14:27:33;;;;;;;;;;;;;;;;;;6254113;22;19921;-92
2022/12/31 14:29:59;;;;;;;;;;;;;;;;;;6279274;22;20337;-93
2022/12/31 14:32:25;;;;;;;;;;;;;;;;;;6279910;22;19919;-91
2022/12/31 14:34:51;;;;;;;;;;;;;;;;;;6256168;22;19922;-92
2022/12/31 14:37:16;;;;;;;;;;;;;;;;;;6281431;22;19938;-93
2022/12/31 14:39:42;;;;;;;;;;;;;;;;;;6255999;22;19919;-91
2022/12/31 14:42:08;;;;;;;;;;;;;;;;;;6256188;22;19921;-91
2022/12/31 14:44:34;;;;;;;;;;;;;;;;;;6256318;22;19922;-94
2022/12/31 14:47:00;;;;;;;;;;;;;;;;;;6255218;22;19968;-92
2022/12/31 14:49:27;;;;;;;;;;;;;;;;;;6280802;22;20268;-91
2022/12/31 14:51:53;;;;;;;;;;;;;;;;;;6255672;22;20022;-91
2022/12/31 14:54:19;;;;;;;;;;;;;;;;;;6255208;22;20356;-90
2022/12/31 14:56:44;;;;;;;;;;;;;;;;;;6254985;22;20040;-94
2022/12/31 14:59:11;;;;;;;;;;;;;;;;;;6255258;22;20226;-93
2022/12/31 15:01:37;;;;;;;;;;;;;;;;;;6255725;22;19915;-93
2022/12/31 15:04:04;;;;;;;;;;;;;;;;;;6255751;22;19919;-93
2022/12/31 15:06:30;;;;;;;;;;;;;;;;;;6255606;22;19914;-92
2022/12/31 15:08:56;;;;;;;;;;;;;;;;;;6255297;22;19930;-92
2022/12/31 15:11:22;;;;;;;;;;;;;;;;;;6255375;22;19923;-93
2022/12/31 15:13:48;;;;;;;;;;;;;;;;;;6255288;22;19988;-92
2022/12/31 15:16:14;;;;;;;;;;;;;;;;;;6280135;22;19919;-94
2022/12/31 15:18:40;;;;;;;;;;;;;;;;;;6255132;22;20003;-91
2022/12/31 15:21:07;;;;;;;;;;;;;;;;;;6254759;22;19919;-93
2022/12/31 15:23:33;;;;;;;;;;;;;;;;;;6280800;22;19922;-91
2022/12/31 15:25:59;;;;;;;;;;;;;;;;;;6255021;22;19954;-93
2022/12/31 15:28:25;;;;;;;;;;;;;;;;;;6280562;22;19921;-92
2022/12/31 15:30:51;;;;;;;;;;;;;;;;;;6254858;22;19919;-90
2022/12/31 15:33:17;;;;;;;;;;;;;;;;;;6255123;22;19930;-90
2022/12/31 15:35:42;;;;;;;;;;;;;;;;;;6254703;22;19919;-91
2022/12/31 15:38:08;;;;;;;;;;;;;;;;;;6254765;22;19915;-92
2022/12/31 15:40:34;;;;;;;;;;;;;;;;;;6255315;22;19969;-91
2022/12/31 15:43:00;;;;;;;;;;;;;;;;;;6255315;22;19915;-90
2022/12/31 15:45:27;;;;;;;;;;;;;;;;;;6255279;22;20304;-90
2022/12/31 15:47:53;;;;;;;;;;;;;;;;;;6280532;22;19919;-90
2022/12/31 15:50:19;;;;;;;;;;;;;;;;;;6280408;22;19925;-91
2022/12/31 15:52:46;;;;;;;;;;;;;;;;;;6254633;22;20351;-91
2022/12/31 15:55:12;;;;;;;;;;;;;;;;;;6254060;22;19930;-92
2022/12/31 15:57:38;;;;;;;;;;;;;;;;;;6255302;22;20218;-92
2022/12/31 16:00:04;;;;;;;;;;;;;;;;;;6254740;22;19914;-94
2022/12/31 16:02:30;;;;;;;;;;;;;;;;;;6280549;22;20352;-94
2022/12/31 16:04:56;;;;;;;;;;;;;;;;;;6255906;22;19922;-96
2022/12/31 16:07:22;;;;;;;;;;;;;;;;;;6258082;22;19926;-95
2022/12/31 16:09:48;;;;;;;;;;;;;;;;;;6256174;22;19915;-95
2022/12/31 16:12:14;;;;;;;;;;;;;;;;;;6255712;22;19925;-93
2022/12/31 16:14:39;;;;;;;;;;;;;;;;;;6256270;22;19921;-94
2022/12/31 16:17:05;;;;;;;;;;;;;;;;;;6253803;22;19916;-90
2022/12/31 16:19:31;;;;;;;;;;;;;;;;;;6254586;22;19915;-94
2022/12/31 16:21:57;;;;;;;;;;;;;;;;;;6256989;22;20402;-94
2022/12/31 16:24:23;;;;;;;;;;;;;;;;;;6282659;22;19915;-92
2022/12/31 16:26:49;;;;;;;;;;;;;;;;;;6284871;22;19915;-95
2022/12/31 16:29:15;;;;;;;;;;;;;;;;;;6259478;22;19945;-95
2022/12/31 16:31:41;;;;;;;;;;;;;;;;;;6256979;22;20336;-93
2022/12/31 16:34:07;;;;;;;;;;;;;;;;;;6255581;22;19986;-94
2022/12/31 16:36:33;;;;;;;;;;;;;;;;;;6282510;22;19965;-95
2022/12/31 16:39:00;;;;;;;;;;;;;;;;;;6254748;22;20427;-96
2022/12/31 16:41:25;;;;;;;;;;;;;;;;;;6255307;22;19915;-94
2022/12/31 16:43:51;;;;;;;;;;;;;;;;;;6255447;22;20118;-95